TimeEST,TemperatureF,Dew PointF,Humidity,Sea Level PressureIn,VisibilityMPH,Wind Direction,Wind SpeedMPH,Gust SpeedMPH,PrecipitationIn,Events,Conditions,WindDirDegrees,DateUTC
12:53 AM,57.9,48.9,72,30.08,10.0,NNW,11.5,-,N/A,,Clear,330,2012-11-23 05:53:00
1:53 AM,57.0,48.9,74,30.08,10.0,NNW,11.5,-,N/A,,Partly Cloudy,330,2012-11-23 06:53:00
2:53 AM,57.0,50.0,77,30.07,10.0,NNW,8.1,-,N/A,,Clear,330,2012-11-23 07:53:00
3:53 AM,55.9,50.0,80,30.07,10.0,NW,9.2,-,N/A,,Partly Cloudy,320,2012-11-23 08:53:00
4:53 AM,57.0,48.9,74,30.08,10.0,NW,10.4,-,N/A,,Scattered Clouds,320,2012-11-23 09:53:00
5:53 AM,55.9,48.9,77,30.09,10.0,NNW,10.4,-,N/A,,Partly Cloudy,330,2012-11-23 10:53:00
6:53 AM,55.9,48.9,77,30.10,10.0,NNW,10.4,-,N/A,,Partly Cloudy,330,2012-11-23 11:53:00
7:53 AM,60.1,48.9,67,30.11,10.0,NNW,13.8,-,N/A,,Scattered Clouds,330,2012-11-23 12:53:00
8:53 AM,64.9,51.1,61,30.13,10.0,NNW,12.7,-,N/A,,Scattered Clouds,340,2012-11-23 13:53:00
9:53 AM,70.0,53.1,55,30.14,10.0,NNW,12.7,-,N/A,,Scattered Clouds,340,2012-11-23 14:53:00
10:53 AM,73.0,54.0,51,30.13,10.0,NW,12.7,-,N/A,,Scattered Clouds,320,2012-11-23 15:53:00
11:53 AM,75.9,55.0,48,30.10,10.0,North,15.0,-,N/A,,Partly Cloudy,350,2012-11-23 16:53:00
12:53 PM,77.0,54.0,45,30.08,10.0,North,15.0,-,N/A,,Partly Cloudy,350,2012-11-23 17:53:00
1:53 PM,77.0,53.1,43,30.06,10.0,North,12.7,-,N/A,,Scattered Clouds,360,2012-11-23 18:53:00
2:53 PM,77.0,54.0,45,30.05,10.0,North,15.0,18.4,N/A,,Scattered Clouds,10,2012-11-23 19:53:00
3:53 PM,75.0,53.1,46,30.05,10.0,North,13.8,-,N/A,,Partly Cloudy,10,2012-11-23 20:53:00
4:53 PM,72.0,54.0,53,30.05,10.0,North,10.4,-,N/A,,Partly Cloudy,360,2012-11-23 21:53:00
5:53 PM,69.1,54.0,58,30.07,10.0,North,9.2,-,N/A,,Partly Cloudy,360,2012-11-23 22:53:00
6:53 PM,64.9,55.0,70,30.08,10.0,North,5.8,-,N/A,,Partly Cloudy,350,2012-11-23 23:53:00
7:53 PM,62.1,55.9,80,30.09,10.0,NW,6.9,-,N/A,,Partly Cloudy,320,2012-11-24 00:53:00
8:53 PM,60.1,55.0,83,30.09,10.0,NW,4.6,-,N/A,,Clear,320,2012-11-24 01:53:00
9:53 PM,57.0,54.0,89,30.10,10.0,NW,6.9,-,N/A,,Clear,310,2012-11-24 02:53:00
10:53 PM,57.9,53.1,84,30.10,10.0,NNW,5.8,-,N/A,,Clear,330,2012-11-24 03:53:00
11:53 PM,57.9,53.1,84,30.09,10.0,West,3.5,-,N/A,,Clear,270,2012-11-24 04:53:00